Truesdale, Iowa
Current Conditions -  °F | °C
As of 2:55 PM on Friday 19 Dec 2014 (Local Time) from KSLB Reporting Station
Haze Haze  
Wind Chill: 23°   Ceiling: 1500
Heat Index: 32°   Visibility: 4mi
Dew Point: 30°   Wind: 12mph
Humidity: 93%   Direction: 190°S
Pressure: 30.14"   Gusts: NA
Location:  42.73°N, 95.18°W
Report Text: KSLB 192055Z AUTO 19010KT 4SM BR BKN015 OVC019 00/M01 A3014 RMK AO2
Loading
Personal Weather Stations






























Interactive Weather Map New forecast layout! Learn more

10-Day Weather Forecast

Advertisements
Track Severe Weather on mobile